Terminal Aerodrome Forecast
Issued by NWS

Home | Current Version | Previous Version | Text Only | Print | Product List | Glossary Off
Versions: 1 2 3 4 5 6 7 8 9 10 11 12 13 14 15 16 17 18 19 20 21 22 23 24

000
FTUS43 KLOT 171503 AAA
TAFGYY
TAF AMD
KGYY 171503Z 1715/1812 31013G21KT P6SM BKN035
     FM172200 02010KT P6SM SCT040
     FM181000 10009KT P6SM BKN040=

USA.gov is the U.S. government's official web portal to all federal, state and local government web resources and services.